createdAt,value
2018-11-10T00:01:35.253Z,95660.84
2018-11-10T00:04:04.174Z,95656.37
2018-11-10T00:06:33.111Z,95660.83
2018-11-10T00:09:02.027Z,95662.95
2018-11-10T00:11:30.985Z,95660.48
2018-11-10T00:13:59.907Z,95663.19
2018-11-10T00:16:28.905Z,95660.14
2018-11-10T00:18:57.732Z,95658.08
2018-11-10T00:21:26.680Z,95658.96
2018-11-10T00:23:55.589Z,95662.25
2018-11-10T00:26:24.519Z,95654.00
2018-11-10T00:28:53.404Z,95654.20
2018-11-10T00:31:22.353Z,95654.19
2018-11-10T00:33:51.254Z,95655.49
2018-11-10T00:36:20.157Z,95658.70
2018-11-10T00:38:48.998Z,95655.39
2018-11-10T00:41:17.913Z,95654.87
2018-11-10T00:43:46.951Z,95654.28
2018-11-10T00:46:15.847Z,95661.84
2018-11-10T00:48:44.765Z,95661.47
2018-11-10T00:51:13.715Z,95651.75
2018-11-10T00:53:42.664Z,95654.22
2018-11-10T00:56:11.551Z,95652.17
2018-11-10T00:58:40.462Z,95654.91
2018-11-10T01:01:09.363Z,95652.26
2018-11-10T01:03:38.379Z,95656.65
2018-11-10T01:06:07.290Z,95653.73
2018-11-10T01:08:36.189Z,95652.00
2018-11-10T01:11:05.293Z,95652.32
2018-11-10T01:13:34.194Z,95653.98
2018-11-10T01:16:03.101Z,95650.69
2018-11-10T01:18:31.979Z,95646.80
2018-11-10T01:21:00.899Z,95646.00
2018-11-10T01:23:29.761Z,95636.44
2018-11-10T01:25:58.871Z,95636.03
2018-11-10T01:28:27.796Z,95636.00
2018-11-10T01:30:56.689Z,95640.73
2018-11-10T01:33:25.627Z,95636.48
2018-11-10T01:35:54.450Z,95636.63
2018-11-10T01:38:23.407Z,95636.48
2018-11-10T01:40:52.276Z,95641.34
2018-11-10T01:43:21.330Z,95638.03
2018-11-10T01:45:50.192Z,95649.63
2018-11-10T01:48:19.157Z,95641.59
2018-11-10T01:50:48.083Z,95638.05
2018-11-10T01:53:16.915Z,95638.84
2018-11-10T01:55:45.884Z,95641.94
2018-11-10T01:58:14.791Z,95631.56
2018-11-10T02:00:43.702Z,95634.62
2018-11-10T02:03:12.709Z,95632.56
2018-11-10T02:05:41.622Z,95634.97
2018-11-10T02:08:10.523Z,95627.45
2018-11-10T02:10:39.450Z,95627.39
2018-11-10T02:13:08.423Z,95626.47
2018-11-10T02:15:37.361Z,95634.36
2018-11-10T02:18:06.418Z,95628.80
2018-11-10T02:20:35.472Z,95630.08
2018-11-10T02:23:04.427Z,95629.45
2018-11-10T02:25:34.178Z,95629.16
2018-11-10T02:28:03.148Z,95634.81
2018-11-10T02:30:32.069Z,95635.39
2018-11-10T02:33:00.950Z,95636.11
2018-11-10T02:35:29.845Z,95637.33
2018-11-10T02:37:58.741Z,95644.98
2018-11-10T02:40:27.713Z,95639.66
2018-11-10T02:42:56.672Z,95646.77
2018-11-10T02:45:25.550Z,95641.33
2018-11-10T02:47:54.446Z,95643.66
2018-11-10T02:50:23.340Z,95643.41
2018-11-10T02:52:52.264Z,95640.24
2018-11-10T02:55:21.144Z,95648.22
2018-11-10T02:57:50.103Z,95650.09
2018-11-10T03:00:19.070Z,95644.98
2018-11-10T03:02:47.946Z,95640.73
2018-11-10T03:05:16.864Z,95642.06
2018-11-10T03:07:45.798Z,95645.95
2018-11-10T03:10:14.729Z,95660.13
2018-11-10T03:12:43.664Z,95660.66
2018-11-10T03:15:13.196Z,95656.77
2018-11-10T03:17:42.214Z,95657.92
2018-11-10T03:20:15.357Z,95649.47
2018-11-10T03:22:44.768Z,95654.95
2018-11-10T03:25:13.724Z,95643.94
2018-11-10T03:27:42.619Z,95653.59
2018-11-10T03:30:11.631Z,95648.17
2018-11-10T03:32:40.589Z,95652.59
2018-11-10T03:35:10.248Z,95651.03
2018-11-10T03:37:39.602Z,95654.74
2018-11-10T03:40:09.542Z,95655.21
2018-11-10T03:42:38.970Z,95654.75
2018-11-10T03:45:09.007Z,95647.13
2018-11-10T03:47:37.950Z,95650.13
2018-11-10T03:50:07.391Z,95650.61
2018-11-10T03:52:36.471Z,95645.72
2018-11-10T03:55:06.489Z,95645.85
2018-11-10T03:57:35.467Z,95643.83
2018-11-10T04:00:04.423Z,95641.30
2018-11-10T04:02:33.333Z,95641.82
2018-11-10T04:05:02.222Z,95648.27
2018-11-10T04:07:31.173Z,95644.60
2018-11-10T04:10:00.064Z,95647.51
2018-11-10T04:12:29.016Z,95651.41
2018-11-10T04:14:57.888Z,95650.30
2018-11-10T04:17:26.710Z,95653.59
2018-11-10T04:19:55.636Z,95650.00
2018-11-10T04:22:28.791Z,95654.06
2018-11-10T04:24:57.685Z,95647.09
2018-11-10T04:27:26.572Z,95651.80
2018-11-10T04:29:55.426Z,95653.27
2018-11-10T04:32:24.297Z,95650.64
2018-11-10T04:34:53.193Z,95653.47
2018-11-10T04:37:22.081Z,95648.89
2018-11-10T04:39:51.048Z,95645.00
2018-11-10T04:42:19.898Z,95649.35
2018-11-10T04:44:48.812Z,95653.71
2018-11-10T04:47:17.786Z,95655.70
2018-11-10T04:49:46.690Z,95661.03
2018-11-10T04:52:15.574Z,95656.19
2018-11-10T04:54:44.501Z,95653.02
2018-11-10T04:57:13.587Z,95657.13
2018-11-10T04:59:42.482Z,95658.19
2018-11-10T05:02:11.335Z,95654.31
2018-11-10T05:04:40.269Z,95653.95
2018-11-10T05:07:09.280Z,95655.48
2018-11-10T05:09:38.172Z,95653.34
2018-11-10T05:12:07.105Z,95663.95
2018-11-10T05:14:36.007Z,95659.02
2018-11-10T05:17:05.229Z,95661.56
2018-11-10T05:19:34.315Z,95665.07
2018-11-10T05:22:03.269Z,95665.02
2018-11-10T05:24:32.142Z,95662.30
2018-11-10T05:27:01.040Z,95664.19
2018-11-10T05:29:29.958Z,95661.55
2018-11-10T05:31:58.902Z,95653.89
2018-11-10T05:34:27.906Z,95661.25
2018-11-10T05:36:56.910Z,95659.80
2018-11-10T05:39:25.738Z,95653.00
2018-11-10T05:41:54.664Z,95655.45
2018-11-10T05:44:23.598Z,95665.11
2018-11-10T05:46:58.871Z,95665.82
2018-11-10T05:49:27.790Z,95662.05
2018-11-10T05:51:56.650Z,95664.29
2018-11-10T05:54:25.707Z,95664.32
2018-11-10T05:56:54.649Z,95663.52
2018-11-10T05:59:23.596Z,95659.94
2018-11-10T06:01:52.468Z,95663.66
2018-11-10T06:04:21.330Z,95672.32
2018-11-10T06:06:50.256Z,95666.03
2018-11-10T06:09:19.256Z,95669.61
2018-11-10T06:11:48.080Z,95672.95
2018-11-10T06:14:16.901Z,95676.98
2018-11-10T06:16:45.790Z,95681.25
2018-11-10T06:19:14.645Z,95662.23
2018-11-10T06:21:43.611Z,95683.96
2018-11-10T06:24:12.542Z,95678.16
2018-11-10T06:26:41.528Z,95686.81
2018-11-10T06:29:10.408Z,95684.02
2018-11-10T06:31:39.340Z,95683.45
2018-11-10T06:34:08.225Z,95686.84
2018-11-10T06:36:37.090Z,95684.94
2018-11-10T06:39:08.638Z,95696.09
2018-11-10T06:41:37.924Z,95691.41
2018-11-10T06:44:06.785Z,95691.55
2018-11-10T06:46:35.704Z,95694.87
2018-11-10T06:49:04.633Z,95696.80
2018-11-10T06:51:33.543Z,95699.18
2018-11-10T06:54:02.522Z,95704.96
2018-11-10T06:56:32.429Z,95703.09
2018-11-10T06:59:01.388Z,95700.25
2018-11-10T07:01:30.506Z,95699.42
2018-11-10T07:03:59.389Z,95698.47
2018-11-10T07:06:28.290Z,95702.02
2018-11-10T07:08:57.170Z,95700.72
2018-11-10T07:11:26.079Z,95693.86
2018-11-10T07:13:56.224Z,95692.81
2018-11-10T07:16:25.151Z,95697.55
2018-11-10T07:18:54.224Z,95702.14
2018-11-10T07:21:23.688Z,95695.39
2018-11-10T07:23:52.626Z,95692.92
2018-11-10T07:26:21.633Z,95693.75
2018-11-10T07:28:50.554Z,95693.41
2018-11-10T07:31:19.432Z,95686.77
2018-11-10T07:33:48.321Z,95689.97
2018-11-10T07:36:17.306Z,95684.18
2018-11-10T07:38:46.275Z,95681.45
2018-11-10T07:41:15.397Z,95679.93
2018-11-10T07:43:44.294Z,95675.94
2018-11-10T07:46:13.223Z,95677.41
2018-11-10T07:48:42.262Z,95679.98
2018-11-10T07:51:11.260Z,95677.73
2018-11-10T07:53:40.204Z,95669.19
2018-11-10T07:56:09.696Z,95672.17
2018-11-10T07:58:38.733Z,95669.48
2018-11-10T08:01:07.725Z,95668.15
2018-11-10T08:03:37.384Z,95671.85
2018-11-10T08:06:06.681Z,95671.88
2018-11-10T08:08:35.590Z,95669.88
2018-11-10T08:11:04.625Z,95668.95
2018-11-10T08:13:34.193Z,95670.70
2018-11-10T08:16:03.224Z,95671.04
2018-11-10T08:18:32.191Z,95665.75
2018-11-10T08:21:01.126Z,95664.39
2018-11-10T08:23:30.098Z,95666.92
2018-11-10T08:25:59.021Z,95668.55
2018-11-10T08:28:27.912Z,95666.37
2018-11-10T08:30:57.483Z,95665.27
2018-11-10T08:33:26.369Z,95666.38
2018-11-10T08:35:55.265Z,95668.54
2018-11-10T08:38:24.224Z,95663.55
2018-11-10T08:40:53.247Z,95665.66
2018-11-10T08:43:22.214Z,95664.02
2018-11-10T08:45:51.125Z,95658.44
2018-11-10T08:48:20.184Z,95661.04
2018-11-10T08:50:49.391Z,95657.50
2018-11-10T08:53:18.321Z,95650.23
2018-11-10T08:55:47.260Z,95652.63
2018-11-10T08:58:16.187Z,95652.76
2018-11-10T09:00:45.272Z,95654.70
2018-11-10T09:03:14.214Z,95655.68
2018-11-10T09:05:43.083Z,95642.11
2018-11-10T09:08:12.064Z,95646.05
2018-11-10T09:10:40.962Z,95641.91
2018-11-10T09:13:09.946Z,95638.66
2018-11-10T09:15:39.025Z,95639.41
2018-11-10T09:18:07.968Z,95635.38
2018-11-10T09:20:36.873Z,95634.50
2018-11-10T09:23:06.887Z,95629.31
2018-11-10T09:25:35.744Z,95626.16
2018-11-10T09:28:04.707Z,95622.51
2018-11-10T09:30:33.610Z,95619.95
2018-11-10T09:33:02.561Z,95615.70
2018-11-10T09:35:31.946Z,95614.59
2018-11-10T09:38:00.902Z,95610.28
2018-11-10T09:40:29.844Z,95613.70
2018-11-10T09:42:58.840Z,95608.50
2018-11-10T09:45:28.017Z,95603.81
2018-11-10T09:47:57.091Z,95603.59
2018-11-10T09:50:26.087Z,95598.58
2018-11-10T09:52:55.039Z,95591.67
2018-11-10T09:55:23.911Z,95591.56
2018-11-10T09:57:52.836Z,95588.75
2018-11-10T10:00:22.612Z,95582.02
2018-11-10T10:02:51.946Z,95575.91
2018-11-10T10:05:20.692Z,95578.73
2018-11-10T10:07:49.670Z,95566.10
2018-11-10T10:10:18.913Z,95568.70
2018-11-10T10:12:48.061Z,95560.25
2018-11-10T10:15:18.173Z,95561.20
2018-11-10T10:17:47.465Z,95563.73
2018-11-10T10:20:17.823Z,95557.77
2018-11-10T10:22:47.667Z,95549.88
2018-11-10T10:25:17.355Z,95551.36
2018-11-10T10:27:47.077Z,95544.88
2018-11-10T10:30:22.080Z,95543.66
2018-11-10T10:32:51.130Z,95538.48
2018-11-10T10:35:20.193Z,95536.66
2018-11-10T10:37:49.878Z,95529.80
2018-11-10T10:40:18.963Z,95525.13
2018-11-10T10:42:48.315Z,95527.28
2018-11-10T10:45:19.177Z,95519.91
2018-11-10T10:47:49.169Z,95524.18
2018-11-10T10:50:19.260Z,95519.95
2018-11-10T10:52:49.528Z,95513.12
2018-11-10T10:55:20.041Z,95513.95
2018-11-10T10:57:54.824Z,95510.02
2018-11-10T11:00:30.677Z,95515.77
2018-11-10T11:03:07.020Z,95502.02
2018-11-10T11:05:45.257Z,95502.61
2018-11-10T11:08:17.115Z,95491.14
2018-11-10T11:10:48.122Z,95491.84
2018-11-10T11:13:21.238Z,95485.92
2018-11-10T11:15:50.305Z,95479.54
2018-11-10T11:18:19.083Z,95483.64
2018-11-10T11:20:48.002Z,95479.92
2018-11-10T11:23:16.991Z,95474.52
2018-11-10T11:25:45.942Z,95468.92
2018-11-10T11:28:14.915Z,95469.93
2018-11-10T11:30:43.895Z,95470.57
2018-11-10T11:33:12.761Z,95464.03
2018-11-10T11:35:41.715Z,95462.38
2018-11-10T11:38:10.718Z,95457.47
2018-11-10T11:40:39.717Z,95457.46
2018-11-10T11:43:08.748Z,95465.16
2018-11-10T11:45:37.778Z,95461.89
2018-11-10T11:48:07.464Z,95457.14
2018-11-10T11:50:41.632Z,95458.09
2018-11-10T11:53:12.337Z,95454.75
2018-11-10T11:55:41.491Z,95454.65
2018-11-10T11:58:10.585Z,95450.16
2018-11-10T12:00:39.828Z,95445.55
2018-11-10T12:03:08.973Z,95448.92
2018-11-10T12:05:37.927Z,95440.23
2018-11-10T12:08:06.947Z,95442.50
2018-11-10T12:10:35.948Z,95431.83
2018-11-10T12:13:05.128Z,95433.98
2018-11-10T12:15:34.118Z,95431.83
2018-11-10T12:18:03.150Z,95427.21
2018-11-10T12:20:32.155Z,95432.60
2018-11-10T12:23:01.287Z,95433.73
2018-11-10T12:25:30.323Z,95427.35
2018-11-10T12:27:59.384Z,95430.55
2018-11-10T12:30:28.545Z,95428.70
2018-11-10T12:32:57.579Z,95417.70
2018-11-10T12:35:26.695Z,95432.36
2018-11-10T12:37:55.853Z,95421.13
2018-11-10T12:40:25.466Z,95425.11
2018-11-10T12:42:55.133Z,95423.69
2018-11-10T12:45:30.363Z,95418.92
2018-11-10T12:47:59.337Z,95420.94
2018-11-10T12:50:28.202Z,95422.91
2018-11-10T12:52:57.154Z,95420.94
2018-11-10T12:55:26.350Z,95422.07
2018-11-10T12:57:55.309Z,95419.58
2018-11-10T13:00:24.258Z,95414.99
2018-11-10T13:02:55.662Z,95415.27
2018-11-10T13:05:24.667Z,95412.77
2018-11-10T13:07:54.063Z,95416.41
2018-11-10T13:10:23.325Z,95412.45
2018-11-10T13:12:52.444Z,95412.23
2018-11-10T13:15:21.819Z,95400.54
2018-11-10T13:17:50.956Z,95405.91
2018-11-10T13:20:20.001Z,95413.10
2018-11-10T13:22:49.209Z,95408.59
2018-11-10T13:25:18.413Z,95406.30
2018-11-10T13:27:47.835Z,95408.60
2018-11-10T13:30:17.191Z,95406.92
2018-11-10T13:32:46.412Z,95405.16
2018-11-10T13:35:15.425Z,95405.46
2018-11-10T13:37:44.540Z,95402.58
2018-11-10T13:40:13.526Z,95405.70
2018-11-10T13:42:42.459Z,95401.83
2018-11-10T13:45:13.308Z,95400.42
2018-11-10T13:47:42.654Z,95400.59
2018-11-10T13:50:12.621Z,95402.56
2018-11-10T13:52:42.832Z,95403.53
2018-11-10T13:55:12.417Z,95397.11
2018-11-10T13:57:41.665Z,95403.65
2018-11-10T14:00:14.198Z,95403.65
2018-11-10T14:02:43.347Z,95403.63
2018-11-10T14:05:13.045Z,95399.64
2018-11-10T14:07:42.050Z,95398.33
2018-11-10T14:10:12.662Z,95397.83
2018-11-10T14:12:42.595Z,95393.94
2018-11-10T14:15:11.600Z,95398.03
2018-11-10T14:17:41.328Z,95391.95
2018-11-10T14:20:12.397Z,95390.02
2018-11-10T14:22:41.375Z,95401.02
2018-11-10T14:25:12.183Z,95398.89
2018-11-10T14:27:41.953Z,95401.53
2018-11-10T14:30:13.060Z,95396.16
2018-11-10T14:32:42.636Z,95404.66
2018-11-10T14:35:12.307Z,95401.73
2018-11-10T14:37:41.346Z,95404.67
2018-11-10T14:40:13.513Z,95406.67
2018-11-10T14:42:42.911Z,95403.73
2018-11-10T14:45:13.280Z,95398.78
2018-11-10T14:47:42.743Z,95406.20
2018-11-10T14:50:12.591Z,95403.58
2018-11-10T14:52:41.889Z,95408.84
2018-11-10T14:55:11.538Z,95406.98
2018-11-10T14:57:40.582Z,95407.74
2018-11-10T15:00:14.748Z,95410.06
2018-11-10T15:02:43.730Z,95403.53
2018-11-10T15:05:13.326Z,95411.75
2018-11-10T15:07:43.217Z,95416.53
2018-11-10T15:10:14.303Z,95416.91
2018-11-10T15:12:44.013Z,95415.31
2018-11-10T15:15:14.380Z,95413.88
2018-11-10T15:17:43.878Z,95416.84
2018-11-10T15:20:14.366Z,95419.98
2018-11-10T15:22:44.095Z,95420.22
2018-11-10T15:25:14.551Z,95426.80
2018-11-10T15:27:43.375Z,95423.72
2018-11-10T15:30:14.374Z,95424.22
2018-11-10T15:32:44.428Z,95424.23
2018-11-10T15:35:14.411Z,95420.66
2018-11-10T15:37:44.444Z,95425.27
2018-11-10T15:40:14.287Z,95425.63
2018-11-10T15:42:43.917Z,95424.98
2018-11-10T15:45:14.247Z,95425.32
2018-11-10T15:47:43.678Z,95429.42
2018-11-10T15:50:14.529Z,95429.41
2018-11-10T15:52:43.778Z,95431.56
2018-11-10T15:55:13.443Z,95428.26
2018-11-10T15:57:42.707Z,95433.66
2018-11-10T16:00:14.395Z,95430.55
2018-11-10T16:02:43.756Z,95435.59
2018-11-10T16:05:13.257Z,95439.48
2018-11-10T16:07:42.194Z,95435.66
2018-11-10T16:10:11.677Z,95442.50
2018-11-10T16:12:40.949Z,95440.88
2018-11-10T16:15:13.154Z,95448.88
2018-11-10T16:17:42.832Z,95454.55
2018-11-10T16:20:15.818Z,95450.44
2018-11-10T16:22:46.815Z,95440.54
2018-11-10T16:25:16.129Z,95451.89
2018-11-10T16:27:45.368Z,95453.20
2018-11-10T16:30:17.504Z,95457.33
2018-11-10T16:32:46.616Z,95463.81
2018-11-10T16:35:15.512Z,95459.59
2018-11-10T16:37:44.604Z,95462.01
2018-11-10T16:40:15.737Z,95460.86
2018-11-10T16:42:46.564Z,95469.73
2018-11-10T16:45:16.244Z,95463.55
2018-11-10T16:47:45.385Z,95459.48
2018-11-10T16:50:14.521Z,95472.05
2018-11-10T16:52:44.301Z,95473.69
2018-11-10T16:55:13.410Z,95469.23
2018-11-10T16:57:42.341Z,95480.78
2018-11-10T17:00:13.301Z,95475.64
2018-11-10T17:02:43.376Z,95474.98
2018-11-10T17:05:12.415Z,95482.95
2018-11-10T17:07:41.634Z,95476.34
2018-11-10T17:10:13.035Z,95475.84
2018-11-10T17:12:42.365Z,95481.40
2018-11-10T17:15:11.730Z,95489.30
2018-11-10T17:17:40.857Z,95485.00
2018-11-10T17:20:13.343Z,95488.06
2018-11-10T17:22:42.765Z,95494.40
2018-11-10T17:25:12.806Z,95492.60
2018-11-10T17:27:42.034Z,95501.52
2018-11-10T17:30:13.998Z,95498.60
2018-11-10T17:32:43.329Z,95501.91
2018-11-10T17:35:13.142Z,95505.19
2018-11-10T17:37:42.390Z,95509.14
2018-11-10T17:40:12.402Z,95508.28
2018-11-10T17:42:41.306Z,95507.80
2018-11-10T17:45:12.344Z,95511.56
2018-11-10T17:47:41.738Z,95517.69
2018-11-10T17:50:12.019Z,95508.56
2018-11-10T17:52:41.408Z,95516.89
2018-11-10T17:55:18.566Z,95517.30
2018-11-10T17:57:47.912Z,95517.34
2018-11-10T18:00:17.032Z,95521.75
2018-11-10T18:02:45.933Z,95519.47
2018-11-10T18:05:16.009Z,95524.80
2018-11-10T18:07:45.162Z,95527.26
2018-11-10T18:10:15.608Z,95523.97
2018-11-10T18:12:45.356Z,95527.07
2018-11-10T18:15:14.703Z,95533.27
2018-11-10T18:17:43.847Z,95533.16
2018-11-10T18:20:14.787Z,95536.80
2018-11-10T18:22:44.293Z,95532.44
2018-11-10T18:25:13.341Z,95537.67
2018-11-10T18:27:42.223Z,95540.61
2018-11-10T18:30:13.002Z,95544.58
2018-11-10T18:32:42.082Z,95540.00
2018-11-10T18:35:11.478Z,95544.92
2018-11-10T18:37:40.707Z,95537.03
2018-11-10T18:40:09.763Z,95537.05
2018-11-10T18:42:38.701Z,95550.55
2018-11-10T18:45:09.088Z,95546.84
2018-11-10T18:47:38.482Z,95546.95
2018-11-10T18:50:09.412Z,95544.84
2018-11-10T18:52:38.408Z,95546.84
2018-11-10T18:55:07.377Z,95552.47
2018-11-10T18:57:36.423Z,95550.23
2018-11-10T19:00:05.925Z,95555.13
2018-11-10T19:02:35.229Z,95554.40
2018-11-10T19:05:04.280Z,95562.67
2018-11-10T19:07:33.169Z,95561.03
2018-11-10T19:10:02.127Z,95563.41
2018-11-10T19:12:31.044Z,95564.09
2018-11-10T19:15:00.031Z,95573.56
2018-11-10T19:17:29.093Z,95572.41
2018-11-10T19:19:58.179Z,95569.98
2018-11-10T19:22:27.097Z,95575.95
2018-11-10T19:24:56.005Z,95577.44
2018-11-10T19:27:24.942Z,95584.63
2018-11-10T19:29:53.939Z,95584.41
2018-11-10T19:32:22.925Z,95586.49
2018-11-10T19:34:51.795Z,95593.16
2018-11-10T19:37:20.736Z,95592.03
2018-11-10T19:39:49.730Z,95592.74
2018-11-10T19:42:19.223Z,95591.28
2018-11-10T19:44:48.208Z,95592.66
2018-11-10T19:47:17.394Z,95586.20
2018-11-10T19:49:46.323Z,95589.67
2018-11-10T19:52:17.093Z,95595.31
2018-11-10T19:54:46.322Z,95598.66
2018-11-10T19:57:16.126Z,95605.37
2018-11-10T19:59:45.171Z,95601.55
2018-11-10T20:02:14.208Z,95608.41
2018-11-10T20:04:43.138Z,95604.41
2018-11-10T20:07:12.086Z,95608.89
2018-11-10T20:09:41.012Z,95604.80
2018-11-10T20:12:09.892Z,95609.05
2018-11-10T20:14:38.764Z,95603.90
2018-11-10T20:17:07.646Z,95610.64
2018-11-10T20:19:36.850Z,95609.27
2018-11-10T20:22:06.013Z,95616.41
2018-11-10T20:24:34.887Z,95618.17
2018-11-10T20:27:03.825Z,95618.94
2018-11-10T20:29:32.742Z,95620.09
2018-11-10T20:32:01.657Z,95620.59
2018-11-10T20:34:30.686Z,95628.45
2018-11-10T20:36:59.556Z,95628.45
2018-11-10T20:39:28.542Z,95626.62
2018-11-10T20:41:57.434Z,95623.93
2018-11-10T20:44:26.338Z,95627.28
2018-11-10T20:46:55.257Z,95625.21
2018-11-10T20:49:24.215Z,95633.85
2018-11-10T20:51:53.245Z,95629.60
2018-11-10T20:54:22.094Z,95631.30
2018-11-10T20:56:50.990Z,95631.45
2018-11-10T20:59:19.861Z,95630.88
2018-11-10T21:01:48.891Z,95630.55
2018-11-10T21:04:17.923Z,95635.53
2018-11-10T21:06:46.960Z,95630.74
2018-11-10T21:09:15.888Z,95632.47
2018-11-10T21:11:44.768Z,95634.16
2018-11-10T21:14:13.698Z,95637.59
2018-11-10T21:16:42.625Z,95642.25
2018-11-10T21:19:11.693Z,95648.77
2018-11-10T21:21:41.167Z,95644.23
2018-11-10T21:24:10.359Z,95647.13
2018-11-10T21:26:39.237Z,95652.92
2018-11-10T21:29:08.304Z,95651.38
2018-11-10T21:31:37.159Z,95659.44
2018-11-10T21:34:06.346Z,95653.78
2018-11-10T21:36:35.274Z,95662.75
2018-11-10T21:39:04.956Z,95658.70
2018-11-10T21:41:33.894Z,95661.59
2018-11-10T21:44:02.758Z,95664.30
2018-11-10T21:46:31.736Z,95671.77
2018-11-10T21:49:00.657Z,95667.67
2018-11-10T21:51:29.669Z,95668.53
2018-11-10T21:53:58.936Z,95668.78
2018-11-10T21:56:27.870Z,95672.69
2018-11-10T21:58:56.761Z,95674.08
2018-11-10T22:01:25.770Z,95672.44
2018-11-10T22:03:54.682Z,95673.46
2018-11-10T22:06:23.689Z,95674.60
2018-11-10T22:08:52.666Z,95674.06
2018-11-10T22:11:21.530Z,95660.95
2018-11-10T22:13:51.080Z,95673.59
2018-11-10T22:16:20.061Z,95668.24
2018-11-10T22:18:48.942Z,95671.50
2018-11-10T22:21:17.951Z,95674.45
2018-11-10T22:23:46.845Z,95672.80
2018-11-10T22:26:15.881Z,95666.68
2018-11-10T22:28:44.770Z,95673.56
2018-11-10T22:31:13.729Z,95673.36
2018-11-10T22:33:42.642Z,95671.78
2018-11-10T22:36:11.806Z,95674.80
2018-11-10T22:38:40.673Z,95676.61
2018-11-10T22:41:09.592Z,95675.17
2018-11-10T22:43:38.401Z,95683.11
2018-11-10T22:46:07.305Z,95676.61
2018-11-10T22:48:36.188Z,95682.26
2018-11-10T22:51:05.401Z,95684.07
2018-11-10T22:53:34.325Z,95685.84
2018-11-10T22:56:03.205Z,95687.31
2018-11-10T22:58:32.099Z,95686.67
2018-11-10T23:01:07.029Z,95682.77
2018-11-10T23:03:36.934Z,95684.07
2018-11-10T23:06:06.037Z,95689.17
2018-11-10T23:08:35.019Z,95684.82
2018-11-10T23:11:03.965Z,95683.92
2018-11-10T23:13:32.894Z,95682.86
2018-11-10T23:16:01.822Z,95683.10
2018-11-10T23:18:30.742Z,95687.95
2018-11-10T23:20:59.785Z,95685.59
2018-11-10T23:23:28.733Z,95691.28
2018-11-10T23:25:57.576Z,95689.95
2018-11-10T23:28:26.451Z,95690.08
2018-11-10T23:30:55.368Z,95693.88
2018-11-10T23:33:24.257Z,95699.55
2018-11-10T23:35:53.129Z,95695.89
2018-11-10T23:38:22.048Z,95693.16
2018-11-10T23:40:57.494Z,95698.76
2018-11-10T23:43:26.515Z,95699.61
2018-11-10T23:45:55.354Z,95705.15
2018-11-10T23:48:24.235Z,95704.35
2018-11-10T23:50:53.134Z,95704.09
2018-11-10T23:53:22.034Z,95708.47
2018-11-10T23:55:50.957Z,95707.19
2018-11-10T23:58:19.837Z,95702.14
